createdAt,value
2022-11-25T00:02:59.174Z,3.65
2022-11-25T00:08:01.021Z,4.75
2022-11-25T00:13:02.683Z,3.65
2022-11-25T00:18:04.303Z,4.40
2022-11-25T00:23:06.081Z,5.93
2022-11-25T00:28:07.969Z,6.53
2022-11-25T00:33:09.600Z,5.97
2022-11-25T00:38:12.128Z,4.78
2022-11-25T00:43:32.431Z,6.85
2022-11-25T00:48:34.006Z,6.22
2022-11-25T00:53:35.957Z,7.10
2022-11-25T00:58:37.852Z,7.05
2022-11-25T01:03:39.508Z,6.25
2022-11-25T01:08:41.221Z,6.25
2022-11-25T01:13:43.070Z,7.25
2022-11-25T01:18:45.433Z,5.80
2022-11-25T01:23:48.507Z,6.47
2022-11-25T01:28:54.567Z,6.97
2022-11-25T01:34:02.929Z,6.97
2022-11-25T01:39:05.201Z,6.73
2022-11-25T01:44:15.022Z,6.80
2022-11-25T01:49:27.212Z,8.52
2022-11-25T01:54:32.317Z,11.63
2022-11-25T01:59:39.865Z,14.38
2022-11-25T02:04:43.481Z,10.52
2022-11-25T02:09:45.923Z,6.10
2022-11-25T02:14:50.780Z,7.85
2022-11-25T02:20:06.012Z,9.00
2022-11-25T02:25:14.513Z,7.97
2022-11-25T02:30:16.306Z,10.18
2022-11-25T02:35:34.118Z,6.45
2022-11-25T02:40:41.908Z,12.03
2022-11-25T02:45:56.917Z,5.65
2022-11-25T02:50:59.241Z,5.88
2022-11-25T02:56:01.023Z,6.22
2022-11-25T03:01:04.087Z,5.07
2022-11-25T03:06:05.929Z,5.65
2022-11-25T03:11:08.155Z,13.85
2022-11-25T03:16:10.124Z,4.25
2022-11-25T03:21:12.099Z,5.50
2022-11-25T03:26:13.725Z,6.45
2022-11-25T03:31:15.442Z,5.70
2022-11-25T03:36:17.220Z,4.13
2022-11-25T03:41:19.055Z,4.88
2022-11-25T03:46:21.000Z,5.47
2022-11-25T03:51:22.700Z,6.40
2022-11-25T03:56:24.723Z,8.85
2022-11-25T04:01:26.614Z,6.07
2022-11-25T04:06:28.352Z,5.00
2022-11-25T04:11:48.723Z,4.25
2022-11-25T04:16:51.366Z,3.50
2022-11-25T04:21:53.385Z,3.50
2022-11-25T04:26:55.572Z,7.57
2022-11-25T04:31:57.172Z,4.10
2022-11-25T04:36:59.200Z,5.43
2022-11-25T04:42:19.790Z,7.40
2022-11-25T04:47:21.757Z,4.70
2022-11-25T04:52:23.698Z,6.88
2022-11-25T04:57:27.241Z,5.20
2022-11-25T05:02:29.367Z,5.07
2022-11-25T05:07:40.089Z,7.93
2022-11-25T05:12:42.188Z,9.18
2022-11-25T05:17:47.985Z,10.05
2022-11-25T05:22:54.484Z,12.60
2022-11-25T05:27:57.380Z,7.47
2022-11-25T05:32:59.185Z,8.50
2022-11-25T05:38:04.324Z,6.40
2022-11-25T05:43:07.103Z,7.95
2022-11-25T05:48:11.079Z,10.30
2022-11-25T05:53:14.176Z,10.15
2022-11-25T05:58:16.107Z,7.65
2022-11-25T06:03:25.945Z,7.18
2022-11-25T06:08:28.076Z,6.70
2022-11-25T06:13:29.675Z,8.00
2022-11-25T06:18:31.526Z,8.80
2022-11-25T06:23:33.831Z,13.32
2022-11-25T06:28:36.176Z,14.77
2022-11-25T06:33:38.205Z,10.15
2022-11-25T06:38:47.417Z,13.68
2022-11-25T06:43:49.316Z,13.57
2022-11-25T06:48:50.990Z,16.52
2022-11-25T06:53:53.603Z,12.98
2022-11-25T06:58:55.957Z,14.27
2022-11-25T07:04:03.338Z,12.60
2022-11-25T07:09:05.478Z,12.63
2022-11-25T07:14:12.040Z,13.07
2022-11-25T07:19:16.359Z,14.07
2022-11-25T07:24:18.561Z,9.60
2022-11-25T07:29:50.444Z,11.73
2022-11-25T07:34:42.571Z,13.50
2022-11-25T07:39:44.170Z,12.65
2022-11-25T07:44:45.952Z,16.15
2022-11-25T07:50:20.894Z,15.88
2022-11-25T07:55:22.494Z,13.60
2022-11-25T08:00:24.232Z,13.57
2022-11-25T08:05:25.860Z,13.02
2022-11-25T08:10:27.602Z,11.13
2022-11-25T08:15:29.275Z,12.18
2022-11-25T08:20:31.521Z,12.68
2022-11-25T08:25:33.294Z,11.32
2022-11-25T08:30:35.424Z,13.77
2022-11-25T08:35:39.825Z,13.45
2022-11-25T08:40:44.503Z,12.25
2022-11-25T08:45:46.112Z,12.20
2022-11-25T08:50:51.092Z,8.95
2022-11-25T08:55:52.758Z,19.17
2022-11-25T09:00:54.338Z,15.73
2022-11-25T09:05:55.947Z,9.70
2022-11-25T09:10:58.208Z,10.88
2022-11-25T09:16:01.357Z,13.77
2022-11-25T09:21:12.696Z,13.75
2022-11-25T09:26:22.417Z,17.75
2022-11-25T09:31:24.319Z,14.55
2022-11-25T09:36:26.023Z,10.95
2022-11-25T09:42:12.934Z,10.82
2022-11-25T09:47:20.789Z,11.40
2022-11-25T09:52:46.392Z,9.70
2022-11-25T09:58:37.341Z,11.55
2022-11-25T10:03:47.083Z,9.48
2022-11-25T10:08:55.255Z,9.55
2022-11-25T10:14:03.514Z,11.47
2022-11-25T10:19:21.284Z,13.17
2022-11-25T10:24:24.079Z,9.43
2022-11-25T10:29:29.965Z,11.93
2022-11-25T10:34:45.433Z,10.20
2022-11-25T10:39:47.228Z,10.00
2022-11-25T10:44:48.919Z,6.50
2022-11-25T10:50:23.587Z,10.82
2022-11-25T10:55:28.706Z,10.10
2022-11-25T11:00:32.632Z,5.68
2022-11-25T11:05:34.243Z,9.02
2022-11-25T11:10:36.083Z,6.30
2022-11-25T11:15:40.569Z,4.32
2022-11-25T11:20:47.619Z,6.45
2022-11-25T11:25:57.530Z,5.82
2022-11-25T11:31:24.383Z,7.03
2022-11-25T11:36:39.109Z,4.07
2022-11-25T11:41:57.903Z,4.00
2022-11-25T11:47:13.398Z,6.30
2022-11-25T11:52:37.008Z,7.00
2022-11-25T11:58:00.223Z,6.72
2022-11-25T12:03:25.581Z,4.07
2022-11-25T12:08:34.991Z,4.68
2022-11-25T12:14:01.001Z,6.65
2022-11-25T12:19:08.806Z,7.18
2022-11-25T12:24:48.007Z,5.97
2022-11-25T12:29:55.510Z,5.93
2022-11-25T12:35:22.235Z,9.15
2022-11-25T12:40:32.182Z,8.75
2022-11-25T12:45:34.004Z,4.75
2022-11-25T12:50:50.656Z,6.03
2022-11-25T12:55:53.701Z,4.85
2022-11-25T13:01:15.410Z,5.70
2022-11-25T13:06:43.704Z,6.65
2022-11-25T13:12:11.525Z,4.95
2022-11-25T13:17:15.592Z,5.43
2022-11-25T13:22:20.297Z,2.90
2022-11-25T13:27:53.750Z,5.47
2022-11-25T13:32:55.645Z,11.13
2022-11-25T13:37:57.359Z,6.97
2022-11-25T13:43:00.513Z,2.92
2022-11-25T13:48:19.760Z,3.90
2022-11-25T13:53:36.084Z,3.15
2022-11-25T13:58:37.705Z,3.25
2022-11-25T14:03:48.148Z,3.30
2022-11-25T14:09:22.625Z,5.15
2022-11-25T14:14:49.232Z,7.70
2022-11-25T14:20:04.701Z,2.63
2022-11-25T14:25:22.660Z,5.32
2022-11-25T14:30:25.396Z,6.82
2022-11-25T14:35:30.462Z,8.10
2022-11-25T14:40:36.877Z,3.33
2022-11-25T14:45:38.742Z,4.43
2022-11-25T14:50:52.748Z,3.75
2022-11-25T14:55:57.808Z,7.22
2022-11-25T15:01:16.540Z,5.82
2022-11-25T15:06:22.314Z,2.63
2022-11-25T15:11:28.708Z,4.57
2022-11-25T15:16:41.533Z,15.27
2022-11-25T15:22:15.028Z,11.43
2022-11-25T15:27:15.292Z,23.95
2022-11-25T15:32:21.815Z,13.93
2022-11-25T15:37:24.142Z,9.05
2022-11-25T15:42:28.387Z,20.90
2022-11-25T15:47:33.744Z,11.10
2022-11-25T15:52:39.954Z,12.80
2022-11-25T15:57:42.052Z,10.07
2022-11-25T16:02:43.664Z,13.00
2022-11-25T16:07:51.367Z,6.88
2022-11-25T16:13:22.398Z,11.07
2022-11-25T16:18:40.650Z,10.07
2022-11-25T16:23:50.547Z,7.90
2022-11-25T16:28:55.786Z,6.45
2022-11-25T16:34:14.089Z,4.50
2022-11-25T16:39:15.970Z,7.23
2022-11-25T16:44:21.192Z,6.00
2022-11-25T16:49:22.979Z,5.90
2022-11-25T16:54:24.768Z,9.20
2022-11-25T16:59:44.177Z,8.52
2022-11-25T17:04:46.688Z,6.70
2022-11-25T17:09:48.628Z,13.30
2022-11-25T17:14:50.551Z,7.05
2022-11-25T17:19:53.368Z,8.30
2022-11-25T17:24:55.268Z,6.18
2022-11-25T17:30:00.206Z,8.13
2022-11-25T17:35:01.958Z,7.22
2022-11-25T17:40:04.073Z,9.48
2022-11-25T17:45:13.513Z,8.30
2022-11-25T17:50:17.284Z,18.52
2022-11-25T17:55:21.642Z,11.95
2022-11-25T18:00:23.791Z,14.80
2022-11-25T18:05:26.801Z,15.45
2022-11-25T18:10:28.471Z,13.80
2022-11-25T18:15:33.898Z,13.65
2022-11-25T18:20:35.571Z,11.52
2022-11-25T18:25:39.996Z,14.77
2022-11-25T18:30:43.091Z,18.42
2022-11-25T18:35:46.282Z,12.88
2022-11-25T18:40:53.294Z,13.32
2022-11-25T18:45:55.871Z,13.07
2022-11-25T18:50:57.748Z,16.15
2022-11-25T18:55:59.876Z,21.10
2022-11-25T19:01:10.842Z,24.33
2022-11-25T19:06:15.272Z,19.17
2022-11-25T19:11:28.816Z,24.55
2022-11-25T19:16:30.562Z,17.58
2022-11-25T19:21:32.239Z,13.80
2022-11-25T19:26:48.196Z,16.08
2022-11-25T19:31:53.997Z,15.65
2022-11-25T19:36:55.753Z,17.05
2022-11-25T19:41:57.319Z,16.83
2022-11-25T19:47:14.761Z,17.40
2022-11-25T19:52:21.421Z,22.97
2022-11-25T19:57:24.425Z,19.52
2022-11-25T20:02:26.519Z,26.80
2022-11-25T20:07:30.162Z,23.88
2022-11-25T20:12:31.848Z,25.85
2022-11-25T20:17:35.253Z,21.45
2022-11-25T20:22:39.628Z,18.45
2022-11-25T20:27:41.540Z,20.15
2022-11-25T20:32:44.132Z,22.67
2022-11-25T20:37:57.816Z,23.02
2022-11-25T20:42:59.835Z,17.92
2022-11-25T20:48:01.481Z,19.70
2022-11-25T20:53:03.627Z,22.48
2022-11-25T20:58:22.336Z,23.83
2022-11-25T21:03:24.272Z,21.48
2022-11-25T21:08:30.190Z,23.58
2022-11-25T21:13:31.804Z,30.85
2022-11-25T21:18:34.280Z,21.83
2022-11-25T21:23:37.921Z,28.02
2022-11-25T21:28:42.854Z,22.15
2022-11-25T21:33:46.121Z,28.08
2022-11-25T21:38:50.436Z,23.50
2022-11-25T21:43:52.104Z,31.13
2022-11-25T21:48:53.722Z,23.52
2022-11-25T21:53:55.399Z,27.85
2022-11-25T21:58:59.540Z,20.17
2022-11-25T22:04:01.453Z,18.98
2022-11-25T22:09:03.300Z,26.60
2022-11-25T22:14:10.298Z,21.63
2022-11-25T22:19:20.889Z,23.85
2022-11-25T22:24:22.684Z,20.67
2022-11-25T22:29:34.527Z,28.75
2022-11-25T22:34:36.464Z,32.25
2022-11-25T22:39:38.638Z,47.00
2022-11-25T22:44:47.423Z,37.38
2022-11-25T22:49:50.524Z,27.67
2022-11-25T22:54:52.179Z,25.30
2022-11-25T22:59:53.711Z,22.98
2022-11-25T23:04:56.170Z,22.33
2022-11-25T23:09:57.774Z,23.65
2022-11-25T23:14:59.425Z,29.80
2022-11-25T23:20:01.263Z,26.73
2022-11-25T23:25:13.707Z,27.98
2022-11-25T23:30:21.456Z,25.92
2022-11-25T23:35:36.470Z,26.90
2022-11-25T23:40:38.918Z,26.70
2022-11-25T23:45:51.390Z,26.42
2022-11-25T23:50:55.435Z,29.40
2022-11-25T23:55:57.061Z,25.35
